Plympton, Massachusetts
Current Conditions -  °F | °C
As of 3:52 PM on Friday 24 Oct 2014 (Local Time) from KPYM Reporting Station
Overcast Overcast  
Wind Chill: 52°   Ceiling: 1800
Heat Index: 52°   Visibility: 10mi
Dew Point: 48°   Wind: 7mph
Humidity: 86%   Direction: 310°NW
Pressure: 29.68"   Gusts: NA
Location:  41.95°N, 70.81°W
Report Text: KPYM 241952Z AUTO 31006KT 10SM OVC018 11/09 A2968 RMK AO2 SLP053 T01110089
Loading
Personal Weather Stations






























Interactive Weather Map
Tropical Storm Tracking
New forecast layout! Learn more

10-Day Weather Forecast

Advertisements
Track Severe Weather on mobile